West Decatur, Pennsylvania
Current Conditions -  °F | °C
As of 8:54 AM on Friday 24 Oct 2014 (Local Time) from KFIG Reporting Station
Few Clouds Few Clouds  
Wind Chill: 44°   Ceiling: Unl
Heat Index: 47°   Visibility: 10mi
Dew Point: 39°   Wind: 7mph
Humidity: 74%   Direction: 280°W
Pressure: 30.04"   Gusts: NA
Location:  40.93°N, 78.28°W
Report Text: KFIG 241254Z AUTO 28006KT 10SM FEW020 08/04 A3004 RMK AO2 SLP177 T00830039
Loading
Personal Weather Stations






























Interactive Weather Map
Tropical Storm Tracking
New forecast layout! Learn more

10-Day Weather Forecast

Advertisements
Track Severe Weather on mobile